Terminal Aerodrome Forecast
Issued by NWS Shreveport, LA

Home | Current Version | Previous Version | Text Only | Print | Product List | Glossary On
Versions: 1 2 3 4 5 6 7 8 9 10 11 12 13 14 15 16 17 18
000
FTUS44 KSHV 210500
TAFTXK
TAF
KTXK 210540Z 2106/2206 18006KT P6SM SKC
     FM211200 19005KT 6SM BR BKN007
      TEMPO 2113/2115 BKN015
     FM211500 20007KT P6SM SCT025
     FM211700 18008KT P6SM FEW040=

USA.gov is the U.S. government's official web portal to all federal, state and local government web resources and services.